sensor_id;sensor_type;location;lat;lon;timestamp;temperature;humidity
54431;DHT22;40342;52.998;5.862;2022-11-15T00:01:47;7.60;99.90
54431;DHT22;40342;52.998;5.862;2022-11-15T00:04:12;7.60;99.90
54431;DHT22;40342;52.998;5.862;2022-11-15T00:06:38;7.60;99.90
54431;DHT22;40342;52.998;5.862;2022-11-15T00:09:04;7.60;99.90
54431;DHT22;40342;52.998;5.862;2022-11-15T00:11:29;7.60;99.90
54431;DHT22;40342;52.998;5.862;2022-11-15T00:13:56;7.50;99.90
54431;DHT22;40342;52.998;5.862;2022-11-15T00:16:21;7.50;99.90
54431;DHT22;40342;52.998;5.862;2022-11-15T00:18:47;7.50;99.90
54431;DHT22;40342;52.998;5.862;2022-11-15T00:21:14;7.50;99.90
54431;DHT22;40342;52.998;5.862;2022-11-15T00:23:40;7.50;99.90
54431;DHT22;40342;52.998;5.862;2022-11-15T00:26:06;7.50;99.90
54431;DHT22;40342;52.998;5.862;2022-11-15T00:28:32;7.50;99.90
54431;DHT22;40342;52.998;5.862;2022-11-15T00:31:02;7.50;99.90
54431;DHT22;40342;52.998;5.862;2022-11-15T00:33:28;7.40;99.90
54431;DHT22;40342;52.998;5.862;2022-11-15T00:35:59;7.40;99.90
54431;DHT22;40342;52.998;5.862;2022-11-15T00:38:25;7.40;99.90
54431;DHT22;40342;52.998;5.862;2022-11-15T00:40:51;7.40;99.90
54431;DHT22;40342;52.998;5.862;2022-11-15T00:43:16;7.40;99.90
54431;DHT22;40342;52.998;5.862;2022-11-15T00:45:42;7.40;99.90
54431;DHT22;40342;52.998;5.862;2022-11-15T00:48:09;7.40;99.90
54431;DHT22;40342;52.998;5.862;2022-11-15T00:50:34;7.40;99.90
54431;DHT22;40342;52.998;5.862;2022-11-15T00:53:00;7.40;99.90
54431;DHT22;40342;52.998;5.862;2022-11-15T00:55:25;7.40;99.90
54431;DHT22;40342;52.998;5.862;2022-11-15T00:57:51;7.30;99.90
54431;DHT22;40342;52.998;5.862;2022-11-15T01:00:17;7.30;99.90
54431;DHT22;40342;52.998;5.862;2022-11-15T01:02:42;7.20;99.90
54431;DHT22;40342;52.998;5.862;2022-11-15T01:05:08;7.10;99.90
54431;DHT22;40342;52.998;5.862;2022-11-15T01:07:34;7.10;99.90
54431;DHT22;40342;52.998;5.862;2022-11-15T01:09:59;7.00;99.90
54431;DHT22;40342;52.998;5.862;2022-11-15T01:12:25;7.00;99.90
54431;DHT22;40342;52.998;5.862;2022-11-15T01:14:50;7.00;99.90
54431;DHT22;40342;52.998;5.862;2022-11-15T01:17:16;6.90;99.90
54431;DHT22;40342;52.998;5.862;2022-11-15T01:19:41;6.90;99.90
54431;DHT22;40342;52.998;5.862;2022-11-15T01:22:07;6.80;99.90
54431;DHT22;40342;52.998;5.862;2022-11-15T01:24:33;6.80;99.90
54431;DHT22;40342;52.998;5.862;2022-11-15T01:26:58;6.80;99.90
54431;DHT22;40342;52.998;5.862;2022-11-15T01:29:24;6.70;99.90
54431;DHT22;40342;52.998;5.862;2022-11-15T01:31:49;6.70;99.90
54431;DHT22;40342;52.998;5.862;2022-11-15T01:34:15;6.70;99.90
54431;DHT22;40342;52.998;5.862;2022-11-15T01:36:41;6.60;99.90
54431;DHT22;40342;52.998;5.862;2022-11-15T01:39:07;6.60;99.90
54431;DHT22;40342;52.998;5.862;2022-11-15T01:41:33;6.60;99.90
54431;DHT22;40342;52.998;5.862;2022-11-15T01:47:00;6.50;99.90
54431;DHT22;40342;52.998;5.862;2022-11-15T01:49:27;6.50;99.90
54431;DHT22;40342;52.998;5.862;2022-11-15T01:51:55;6.50;99.90
54431;DHT22;40342;52.998;5.862;2022-11-15T01:54:23;6.50;99.90
54431;DHT22;40342;52.998;5.862;2022-11-15T01:57:03;6.50;99.90
54431;DHT22;40342;52.998;5.862;2022-11-15T01:59:30;6.50;99.90
54431;DHT22;40342;52.998;5.862;2022-11-15T02:01:56;6.50;99.90
54431;DHT22;40342;52.998;5.862;2022-11-15T02:04:34;6.50;99.90
54431;DHT22;40342;52.998;5.862;2022-11-15T02:07:03;6.50;99.90
54431;DHT22;40342;52.998;5.862;2022-11-15T02:09:29;6.50;99.90
54431;DHT22;40342;52.998;5.862;2022-11-15T02:11:56;6.50;99.90
54431;DHT22;40342;52.998;5.862;2022-11-15T02:14:22;6.50;99.90
54431;DHT22;40342;52.998;5.862;2022-11-15T02:22:14;6.60;99.90
54431;DHT22;40342;52.998;5.862;2022-11-15T02:25:11;6.50;99.90
54431;DHT22;40342;52.998;5.862;2022-11-15T02:28:16;6.60;99.90
54431;DHT22;40342;52.998;5.862;2022-11-15T02:31:23;6.60;99.90
54431;DHT22;40342;52.998;5.862;2022-11-15T02:42:28;6.60;99.90
54431;DHT22;40342;52.998;5.862;2022-11-15T02:45:23;6.70;99.90
54431;DHT22;40342;52.998;5.862;2022-11-15T02:47:52;6.70;99.90
54431;DHT22;40342;52.998;5.862;2022-11-15T02:50:21;6.70;99.90
54431;DHT22;40342;52.998;5.862;2022-11-15T02:52:50;6.70;99.90
54431;DHT22;40342;52.998;5.862;2022-11-15T02:55:46;6.70;99.90
54431;DHT22;40342;52.998;5.862;2022-11-15T03:00:54;6.70;99.90
54431;DHT22;40342;52.998;5.862;2022-11-15T03:11:23;6.80;99.90
54431;DHT22;40342;52.998;5.862;2022-11-15T03:14:19;6.90;99.90
54431;DHT22;40342;52.998;5.862;2022-11-15T03:19:55;6.90;99.90
54431;DHT22;40342;52.998;5.862;2022-11-15T03:22:24;6.90;99.90
54431;DHT22;40342;52.998;5.862;2022-11-15T03:24:54;6.90;99.90
54431;DHT22;40342;52.998;5.862;2022-11-15T03:27:24;6.90;99.90
54431;DHT22;40342;52.998;5.862;2022-11-15T03:29:54;6.90;99.90
54431;DHT22;40342;52.998;5.862;2022-11-15T03:32:28;7.00;99.90
54431;DHT22;40342;52.998;5.862;2022-11-15T03:35:02;7.00;99.90
54431;DHT22;40342;52.998;5.862;2022-11-15T03:37:34;7.00;99.90
54431;DHT22;40342;52.998;5.862;2022-11-15T03:40:02;7.00;99.90
54431;DHT22;40342;52.998;5.862;2022-11-15T03:45:28;7.00;99.90
54431;DHT22;40342;52.998;5.862;2022-11-15T03:48:43;7.00;99.90
54431;DHT22;40342;52.998;5.862;2022-11-15T03:51:12;7.30;99.90
54431;DHT22;40342;52.998;5.862;2022-11-15T03:53:38;7.10;99.90
54431;DHT22;40342;52.998;5.862;2022-11-15T03:56:03;7.10;99.90
54431;DHT22;40342;52.998;5.862;2022-11-15T03:58:29;7.10;99.90
54431;DHT22;40342;52.998;5.862;2022-11-15T04:00:54;7.20;99.90
54431;DHT22;40342;52.998;5.862;2022-11-15T04:03:20;7.20;99.90
54431;DHT22;40342;52.998;5.862;2022-11-15T04:05:45;7.20;99.90
54431;DHT22;40342;52.998;5.862;2022-11-15T04:08:11;7.20;99.90
54431;DHT22;40342;52.998;5.862;2022-11-15T04:10:37;7.20;99.90
54431;DHT22;40342;52.998;5.862;2022-11-15T04:13:03;7.20;99.90
54431;DHT22;40342;52.998;5.862;2022-11-15T04:15:28;7.30;99.90
54431;DHT22;40342;52.998;5.862;2022-11-15T04:17:56;7.30;99.90
54431;DHT22;40342;52.998;5.862;2022-11-15T04:20:30;7.30;99.90
54431;DHT22;40342;52.998;5.862;2022-11-15T04:23:19;7.30;99.90
54431;DHT22;40342;52.998;5.862;2022-11-15T04:26:08;7.30;99.90
54431;DHT22;40342;52.998;5.862;2022-11-15T04:28:35;7.40;99.90
54431;DHT22;40342;52.998;5.862;2022-11-15T04:31:21;7.40;99.90
54431;DHT22;40342;52.998;5.862;2022-11-15T04:33:47;7.50;99.90
54431;DHT22;40342;52.998;5.862;2022-11-15T04:36:12;7.50;99.90
54431;DHT22;40342;52.998;5.862;2022-11-15T04:38:56;7.50;99.90
54431;DHT22;40342;52.998;5.862;2022-11-15T04:41:22;7.60;99.90
54431;DHT22;40342;52.998;5.862;2022-11-15T04:43:47;7.50;99.90
54431;DHT22;40342;52.998;5.862;2022-11-15T04:46:13;7.60;99.90
54431;DHT22;40342;52.998;5.862;2022-11-15T04:48:38;7.60;99.90
54431;DHT22;40342;52.998;5.862;2022-11-15T04:51:04;7.70;99.90
54431;DHT22;40342;52.998;5.862;2022-11-15T04:53:30;7.70;99.90
54431;DHT22;40342;52.998;5.862;2022-11-15T04:55:55;7.80;99.90
54431;DHT22;40342;52.998;5.862;2022-11-15T04:58:21;7.80;99.90
54431;DHT22;40342;52.998;5.862;2022-11-15T05:00:46;7.80;99.90
54431;DHT22;40342;52.998;5.862;2022-11-15T05:03:12;7.90;99.90
54431;DHT22;40342;52.998;5.862;2022-11-15T05:05:57;7.90;99.90
54431;DHT22;40342;52.998;5.862;2022-11-15T05:08:23;8.00;99.90
54431;DHT22;40342;52.998;5.862;2022-11-15T05:10:49;8.00;99.90
54431;DHT22;40342;52.998;5.862;2022-11-15T05:13:14;8.00;99.90
54431;DHT22;40342;52.998;5.862;2022-11-15T05:15:40;8.10;99.90
54431;DHT22;40342;52.998;5.862;2022-11-15T05:18:05;8.10;99.90
54431;DHT22;40342;52.998;5.862;2022-11-15T05:20:36;8.10;99.90
54431;DHT22;40342;52.998;5.862;2022-11-15T05:23:02;8.30;99.90
54431;DHT22;40342;52.998;5.862;2022-11-15T05:25:28;8.20;99.90
54431;DHT22;40342;52.998;5.862;2022-11-15T05:27:53;8.30;99.90
54431;DHT22;40342;52.998;5.862;2022-11-15T05:30:19;8.30;99.90
54431;DHT22;40342;52.998;5.862;2022-11-15T05:32:45;8.30;99.90
54431;DHT22;40342;52.998;5.862;2022-11-15T05:35:18;8.40;99.90
54431;DHT22;40342;52.998;5.862;2022-11-15T05:37:45;8.40;99.90
54431;DHT22;40342;52.998;5.862;2022-11-15T05:40:11;8.50;99.90
54431;DHT22;40342;52.998;5.862;2022-11-15T05:42:36;8.50;99.90
54431;DHT22;40342;52.998;5.862;2022-11-15T05:45:05;8.50;99.90
54431;DHT22;40342;52.998;5.862;2022-11-15T05:47:31;8.60;99.90
54431;DHT22;40342;52.998;5.862;2022-11-15T05:49:58;8.60;99.90
54431;DHT22;40342;52.998;5.862;2022-11-15T05:52:28;8.60;99.90
54431;DHT22;40342;52.998;5.862;2022-11-15T05:54:55;8.70;99.90
54431;DHT22;40342;52.998;5.862;2022-11-15T05:57:22;8.70;99.90
54431;DHT22;40342;52.998;5.862;2022-11-15T05:59:47;8.70;99.90
54431;DHT22;40342;52.998;5.862;2022-11-15T06:02:13;8.70;99.90
54431;DHT22;40342;52.998;5.862;2022-11-15T06:04:38;8.80;99.90
54431;DHT22;40342;52.998;5.862;2022-11-15T06:07:04;8.80;99.90
54431;DHT22;40342;52.998;5.862;2022-11-15T06:09:30;8.80;99.90
54431;DHT22;40342;52.998;5.862;2022-11-15T06:11:55;8.90;99.90
54431;DHT22;40342;52.998;5.862;2022-11-15T06:14:21;8.90;99.90
54431;DHT22;40342;52.998;5.862;2022-11-15T06:16:46;8.90;99.90
54431;DHT22;40342;52.998;5.862;2022-11-15T06:19:12;8.90;99.90
54431;DHT22;40342;52.998;5.862;2022-11-15T06:21:37;8.90;99.90
54431;DHT22;40342;52.998;5.862;2022-11-15T06:24:03;8.90;99.90
54431;DHT22;40342;52.998;5.862;2022-11-15T06:26:29;9.00;99.90
54431;DHT22;40342;52.998;5.862;2022-11-15T06:28:58;9.00;99.90
54431;DHT22;40342;52.998;5.862;2022-11-15T06:31:23;9.00;99.90
54431;DHT22;40342;52.998;5.862;2022-11-15T06:33:49;9.00;99.90
54431;DHT22;40342;52.998;5.862;2022-11-15T06:36:15;9.10;99.90
54431;DHT22;40342;52.998;5.862;2022-11-15T06:38:43;9.10;99.90
54431;DHT22;40342;52.998;5.862;2022-11-15T06:41:09;9.10;99.90
54431;DHT22;40342;52.998;5.862;2022-11-15T06:43:36;9.20;99.90
54431;DHT22;40342;52.998;5.862;2022-11-15T06:46:04;9.20;99.90
54431;DHT22;40342;52.998;5.862;2022-11-15T06:48:30;9.20;99.90
54431;DHT22;40342;52.998;5.862;2022-11-15T06:50:58;9.30;99.90
54431;DHT22;40342;52.998;5.862;2022-11-15T06:53:24;9.30;99.90
54431;DHT22;40342;52.998;5.862;2022-11-15T06:55:50;9.30;99.90
54431;DHT22;40342;52.998;5.862;2022-11-15T06:58:16;9.30;99.90
54431;DHT22;40342;52.998;5.862;2022-11-15T07:00:42;9.30;99.90
54431;DHT22;40342;52.998;5.862;2022-11-15T07:03:08;9.30;99.90
54431;DHT22;40342;52.998;5.862;2022-11-15T07:05:34;9.40;99.90
54431;DHT22;40342;52.998;5.862;2022-11-15T07:08:00;9.40;99.90
54431;DHT22;40342;52.998;5.862;2022-11-15T07:10:26;9.40;99.90
54431;DHT22;40342;52.998;5.862;2022-11-15T07:12:52;9.40;99.90
54431;DHT22;40342;52.998;5.862;2022-11-15T07:15:20;9.40;99.90
54431;DHT22;40342;52.998;5.862;2022-11-15T07:17:46;9.50;99.90
54431;DHT22;40342;52.998;5.862;2022-11-15T07:20:12;9.50;99.90
54431;DHT22;40342;52.998;5.862;2022-11-15T07:22:41;9.60;99.90
54431;DHT22;40342;52.998;5.862;2022-11-15T07:25:08;9.60;99.90
54431;DHT22;40342;52.998;5.862;2022-11-15T07:27:34;9.60;99.90
54431;DHT22;40342;52.998;5.862;2022-11-15T07:30:00;9.60;99.90
54431;DHT22;40342;52.998;5.862;2022-11-15T07:32:25;9.70;99.90
54431;DHT22;40342;52.998;5.862;2022-11-15T07:34:51;9.70;99.90
54431;DHT22;40342;52.998;5.862;2022-11-15T07:37:17;9.80;99.90
54431;DHT22;40342;52.998;5.862;2022-11-15T07:39:43;9.80;99.90
54431;DHT22;40342;52.998;5.862;2022-11-15T07:42:09;9.80;99.90
54431;DHT22;40342;52.998;5.862;2022-11-15T07:44:53;9.80;99.90
54431;DHT22;40342;52.998;5.862;2022-11-15T07:47:19;9.90;99.90
54431;DHT22;40342;52.998;5.862;2022-11-15T07:49:46;9.90;99.90
54431;DHT22;40342;52.998;5.862;2022-11-15T07:52:12;9.90;99.90
54431;DHT22;40342;52.998;5.862;2022-11-15T07:54:38;9.90;99.90
54431;DHT22;40342;52.998;5.862;2022-11-15T07:57:04;9.90;99.90
54431;DHT22;40342;52.998;5.862;2022-11-15T07:59:30;9.90;99.90
54431;DHT22;40342;52.998;5.862;2022-11-15T08:01:56;10.00;99.90
54431;DHT22;40342;52.998;5.862;2022-11-15T08:04:21;10.00;99.90
54431;DHT22;40342;52.998;5.862;2022-11-15T08:06:47;10.10;99.90
54431;DHT22;40342;52.998;5.862;2022-11-15T08:09:12;10.00;99.90
54431;DHT22;40342;52.998;5.862;2022-11-15T08:11:38;10.00;99.90
54431;DHT22;40342;52.998;5.862;2022-11-15T08:14:03;10.00;99.90
54431;DHT22;40342;52.998;5.862;2022-11-15T08:16:29;10.10;99.90
54431;DHT22;40342;52.998;5.862;2022-11-15T08:18:55;10.10;99.90
54431;DHT22;40342;52.998;5.862;2022-11-15T08:21:21;10.10;99.90
54431;DHT22;40342;52.998;5.862;2022-11-15T08:23:47;10.10;99.90
54431;DHT22;40342;52.998;5.862;2022-11-15T08:26:13;10.20;99.90
54431;DHT22;40342;52.998;5.862;2022-11-15T08:28:38;10.10;99.90
54431;DHT22;40342;52.998;5.862;2022-11-15T08:31:04;10.10;99.90
54431;DHT22;40342;52.998;5.862;2022-11-15T08:33:31;10.10;99.90
54431;DHT22;40342;52.998;5.862;2022-11-15T08:35:59;10.10;99.90
54431;DHT22;40342;52.998;5.862;2022-11-15T08:38:24;10.10;99.90
54431;DHT22;40342;52.998;5.862;2022-11-15T08:40:52;10.10;99.90
54431;DHT22;40342;52.998;5.862;2022-11-15T08:43:18;10.10;99.90
54431;DHT22;40342;52.998;5.862;2022-11-15T08:45:44;10.20;99.90
54431;DHT22;40342;52.998;5.862;2022-11-15T08:48:10;10.20;99.90
54431;DHT22;40342;52.998;5.862;2022-11-15T08:50:35;10.20;99.90
54431;DHT22;40342;52.998;5.862;2022-11-15T08:53:08;10.20;99.90
54431;DHT22;40342;52.998;5.862;2022-11-15T08:55:39;10.20;99.90
54431;DHT22;40342;52.998;5.862;2022-11-15T08:58:04;10.30;99.90
54431;DHT22;40342;52.998;5.862;2022-11-15T09:00:30;10.30;99.90
54431;DHT22;40342;52.998;5.862;2022-11-15T09:02:56;10.30;99.90
54431;DHT22;40342;52.998;5.862;2022-11-15T09:05:21;10.40;99.90
54431;DHT22;40342;52.998;5.862;2022-11-15T09:07:47;10.30;99.90
54431;DHT22;40342;52.998;5.862;2022-11-15T09:10:12;10.40;99.90
54431;DHT22;40342;52.998;5.862;2022-11-15T09:12:38;10.40;99.90
54431;DHT22;40342;52.998;5.862;2022-11-15T09:15:05;10.40;99.90
54431;DHT22;40342;52.998;5.862;2022-11-15T09:17:31;10.40;99.90
54431;DHT22;40342;52.998;5.862;2022-11-15T09:19:57;10.30;99.90
54431;DHT22;40342;52.998;5.862;2022-11-15T09:22:22;10.40;99.90
54431;DHT22;40342;52.998;5.862;2022-11-15T09:24:48;10.40;99.90
54431;DHT22;40342;52.998;5.862;2022-11-15T09:27:13;10.40;99.90
54431;DHT22;40342;52.998;5.862;2022-11-15T09:29:39;10.40;99.90
54431;DHT22;40342;52.998;5.862;2022-11-15T09:32:05;10.40;99.90
54431;DHT22;40342;52.998;5.862;2022-11-15T09:34:31;10.40;99.90
54431;DHT22;40342;52.998;5.862;2022-11-15T09:36:56;10.50;99.90
54431;DHT22;40342;52.998;5.862;2022-11-15T09:39:22;10.50;99.90
54431;DHT22;40342;52.998;5.862;2022-11-15T09:42:25;10.50;99.90
54431;DHT22;40342;52.998;5.862;2022-11-15T09:50:35;10.70;99.90
54431;DHT22;40342;52.998;5.862;2022-11-15T09:53:01;10.70;99.90
54431;DHT22;40342;52.998;5.862;2022-11-15T09:56:00;10.70;99.90
54431;DHT22;40342;52.998;5.862;2022-11-15T10:01:28;10.80;99.90
54431;DHT22;40342;52.998;5.862;2022-11-15T10:03:56;10.80;99.90
54431;DHT22;40342;52.998;5.862;2022-11-15T10:06:26;10.80;99.90
54431;DHT22;40342;52.998;5.862;2022-11-15T10:11:39;10.90;99.90
54431;DHT22;40342;52.998;5.862;2022-11-15T10:14:19;10.90;99.90
54431;DHT22;40342;52.998;5.862;2022-11-15T10:22:47;11.10;99.90
54431;DHT22;40342;52.998;5.862;2022-11-15T10:25:17;11.10;99.90
54431;DHT22;40342;52.998;5.862;2022-11-15T10:27:45;11.10;99.90
54431;DHT22;40342;52.998;5.862;2022-11-15T10:30:16;11.10;99.90
54431;DHT22;40342;52.998;5.862;2022-11-15T10:32:43;11.20;99.90
54431;DHT22;40342;52.998;5.862;2022-11-15T10:35:20;11.20;99.90
54431;DHT22;40342;52.998;5.862;2022-11-15T10:37:46;11.20;99.90
54431;DHT22;40342;52.998;5.862;2022-11-15T10:40:19;11.20;99.90
54431;DHT22;40342;52.998;5.862;2022-11-15T10:42:45;11.30;99.90
54431;DHT22;40342;52.998;5.862;2022-11-15T10:45:28;11.30;99.90
54431;DHT22;40342;52.998;5.862;2022-11-15T10:48:19;11.30;99.90
54431;DHT22;40342;52.998;5.862;2022-11-15T10:50:46;11.30;99.90
54431;DHT22;40342;52.998;5.862;2022-11-15T10:55:48;11.30;99.90
54431;DHT22;40342;52.998;5.862;2022-11-15T10:58:34;11.40;99.90
54431;DHT22;40342;52.998;5.862;2022-11-15T11:01:22;11.40;99.90
54431;DHT22;40342;52.998;5.862;2022-11-15T11:06:29;11.50;99.90
54431;DHT22;40342;52.998;5.862;2022-11-15T11:09:04;11.50;99.90
54431;DHT22;40342;52.998;5.862;2022-11-15T11:11:47;11.60;99.90
54431;DHT22;40342;52.998;5.862;2022-11-15T11:14:24;11.50;99.90
54431;DHT22;40342;52.998;5.862;2022-11-15T11:19:56;11.60;99.90
54431;DHT22;40342;52.998;5.862;2022-11-15T11:22:51;11.60;99.90
54431;DHT22;40342;52.998;5.862;2022-11-15T11:33:22;11.50;99.90
54431;DHT22;40342;52.998;5.862;2022-11-15T11:41:20;11.60;99.90
54431;DHT22;40342;52.998;5.862;2022-11-15T11:47:07;11.60;99.90
54431;DHT22;40342;52.998;5.862;2022-11-15T11:55:04;12.00;99.90
54431;DHT22;40342;52.998;5.862;2022-11-15T11:57:46;12.20;99.90
54431;DHT22;40342;52.998;5.862;2022-11-15T12:00:20;12.30;99.90
54431;DHT22;40342;52.998;5.862;2022-11-15T12:03:00;12.50;99.90
54431;DHT22;40342;52.998;5.862;2022-11-15T12:05:44;12.60;99.90
54431;DHT22;40342;52.998;5.862;2022-11-15T12:11:52;12.50;99.90
54431;DHT22;40342;52.998;5.862;2022-11-15T12:14:42;12.50;99.90
54431;DHT22;40342;52.998;5.862;2022-11-15T12:17:11;12.40;99.90
54431;DHT22;40342;52.998;5.862;2022-11-15T12:19:37;12.40;99.90
54431;DHT22;40342;52.998;5.862;2022-11-15T12:22:21;12.50;99.90
54431;DHT22;40342;52.998;5.862;2022-11-15T12:24:57;12.50;99.90
54431;DHT22;40342;52.998;5.862;2022-11-15T12:27:38;12.50;99.90
54431;DHT22;40342;52.998;5.862;2022-11-15T12:30:15;12.60;99.90
54431;DHT22;40342;52.998;5.862;2022-11-15T12:32:59;12.70;99.90
54431;DHT22;40342;52.998;5.862;2022-11-15T12:35:45;12.80;99.90
54431;DHT22;40342;52.998;5.862;2022-11-15T12:41:44;12.90;99.90
54431;DHT22;40342;52.998;5.862;2022-11-15T13:02:22;13.00;99.90
54431;DHT22;40342;52.998;5.862;2022-11-15T13:04:50;13.00;99.90
54431;DHT22;40342;52.998;5.862;2022-11-15T13:07:55;13.00;99.90
54431;DHT22;40342;52.998;5.862;2022-11-15T13:10:31;13.00;99.90
54431;DHT22;40342;52.998;5.862;2022-11-15T13:13:41;13.00;99.90
54431;DHT22;40342;52.998;5.862;2022-11-15T13:16:05;13.00;99.90
54431;DHT22;40342;52.998;5.862;2022-11-15T13:18:35;13.00;99.90
54431;DHT22;40342;52.998;5.862;2022-11-15T13:21:03;13.00;99.90
54431;DHT22;40342;52.998;5.862;2022-11-15T13:23:53;12.90;99.90
54431;DHT22;40342;52.998;5.862;2022-11-15T13:26:19;12.90;99.90
54431;DHT22;40342;52.998;5.862;2022-11-15T13:28:50;12.90;99.90
54431;DHT22;40342;52.998;5.862;2022-11-15T13:31:36;12.80;99.90
54431;DHT22;40342;52.998;5.862;2022-11-15T13:34:31;12.80;99.90
54431;DHT22;40342;52.998;5.862;2022-11-15T13:37:01;12.80;99.90
54431;DHT22;40342;52.998;5.862;2022-11-15T13:41:54;12.80;99.90
54431;DHT22;40342;52.998;5.862;2022-11-15T13:44:32;12.80;99.90
54431;DHT22;40342;52.998;5.862;2022-11-15T13:47:14;12.90;99.90
54431;DHT22;40342;52.998;5.862;2022-11-15T13:49:41;12.80;99.90
54431;DHT22;40342;52.998;5.862;2022-11-15T13:52:10;12.80;99.90
54431;DHT22;40342;52.998;5.862;2022-11-15T13:57:22;12.80;99.90
54431;DHT22;40342;52.998;5.862;2022-11-15T13:59:51;12.80;99.90
54431;DHT22;40342;52.998;5.862;2022-11-15T14:02:21;12.70;99.90
54431;DHT22;40342;52.998;5.862;2022-11-15T14:07:20;13.20;99.90
54431;DHT22;40342;52.998;5.862;2022-11-15T14:09:46;13.30;99.90
54431;DHT22;40342;52.998;5.862;2022-11-15T14:12:49;12.50;99.90
54431;DHT22;40342;52.998;5.862;2022-11-15T14:15:28;12.40;99.90
54431;DHT22;40342;52.998;5.862;2022-11-15T14:17:54;12.40;99.90
54431;DHT22;40342;52.998;5.862;2022-11-15T14:20:34;12.30;99.90
54431;DHT22;40342;52.998;5.862;2022-11-15T14:23:46;12.20;99.90
54431;DHT22;40342;52.998;5.862;2022-11-15T14:25:57;12.10;99.90
54431;DHT22;40342;52.998;5.862;2022-11-15T14:30:53;12.00;99.90
54431;DHT22;40342;52.998;5.862;2022-11-15T14:33:28;11.90;99.90
54431;DHT22;40342;52.998;5.862;2022-11-15T14:35:55;11.90;99.90
54431;DHT22;40342;52.998;5.862;2022-11-15T14:38:23;11.80;99.90
54431;DHT22;40342;52.998;5.862;2022-11-15T14:40:48;11.80;99.90
54431;DHT22;40342;52.998;5.862;2022-11-15T14:43:14;11.70;99.90
54431;DHT22;40342;52.998;5.862;2022-11-15T14:45:40;11.60;99.90
54431;DHT22;40342;52.998;5.862;2022-11-15T14:48:06;11.70;99.90
54431;DHT22;40342;52.998;5.862;2022-11-15T14:50:32;11.50;99.90
54431;DHT22;40342;52.998;5.862;2022-11-15T14:52:59;11.40;99.90
54431;DHT22;40342;52.998;5.862;2022-11-15T14:55:27;11.40;99.90
54431;DHT22;40342;52.998;5.862;2022-11-15T14:57:54;11.40;99.90
54431;DHT22;40342;52.998;5.862;2022-11-15T15:00:20;11.30;99.90
54431;DHT22;40342;52.998;5.862;2022-11-15T15:02:47;11.20;99.90
54431;DHT22;40342;52.998;5.862;2022-11-15T15:07:41;11.10;99.90
54431;DHT22;40342;52.998;5.862;2022-11-15T15:10:08;11.10;99.90
54431;DHT22;40342;52.998;5.862;2022-11-15T15:12:33;11.10;99.90
54431;DHT22;40342;52.998;5.862;2022-11-15T15:14:59;11.00;99.90
54431;DHT22;40342;52.998;5.862;2022-11-15T15:17:24;11.00;99.90
54431;DHT22;40342;52.998;5.862;2022-11-15T15:19:50;11.00;99.90
54431;DHT22;40342;52.998;5.862;2022-11-15T15:22:17;10.90;99.90
54431;DHT22;40342;52.998;5.862;2022-11-15T15:24:44;10.90;99.90
54431;DHT22;40342;52.998;5.862;2022-11-15T15:27:10;10.90;99.90
54431;DHT22;40342;52.998;5.862;2022-11-15T15:29:36;10.90;99.90
54431;DHT22;40342;52.998;5.862;2022-11-15T15:32:02;10.90;99.90
54431;DHT22;40342;52.998;5.862;2022-11-15T15:34:27;10.80;99.90
54431;DHT22;40342;52.998;5.862;2022-11-15T15:37:21;10.80;99.90
54431;DHT22;40342;52.998;5.862;2022-11-15T15:39:56;10.80;99.90
54431;DHT22;40342;52.998;5.862;2022-11-15T15:42:22;10.80;99.90
54431;DHT22;40342;52.998;5.862;2022-11-15T15:44:51;10.70;99.90
54431;DHT22;40342;52.998;5.862;2022-11-15T15:47:22;10.70;99.90
54431;DHT22;40342;52.998;5.862;2022-11-15T15:49:49;10.70;99.90
54431;DHT22;40342;52.998;5.862;2022-11-15T15:52:15;10.60;99.90
54431;DHT22;40342;52.998;5.862;2022-11-15T15:54:41;10.60;99.90
54431;DHT22;40342;52.998;5.862;2022-11-15T15:57:08;10.60;99.90
54431;DHT22;40342;52.998;5.862;2022-11-15T15:59:33;10.60;99.90
54431;DHT22;40342;52.998;5.862;2022-11-15T16:01:59;10.60;99.90
54431;DHT22;40342;52.998;5.862;2022-11-15T16:04:25;10.60;99.90
54431;DHT22;40342;52.998;5.862;2022-11-15T16:06:51;10.60;99.90
54431;DHT22;40342;52.998;5.862;2022-11-15T16:09:20;10.60;99.90
54431;DHT22;40342;52.998;5.862;2022-11-15T16:12:08;10.60;99.90
54431;DHT22;40342;52.998;5.862;2022-11-15T16:14:34;10.60;99.90
54431;DHT22;40342;52.998;5.862;2022-11-15T16:16:59;10.70;99.90
54431;DHT22;40342;52.998;5.862;2022-11-15T16:19:25;10.70;99.90
54431;DHT22;40342;52.998;5.862;2022-11-15T16:21:50;10.70;99.90
54431;DHT22;40342;52.998;5.862;2022-11-15T16:24:18;10.70;99.90
54431;DHT22;40342;52.998;5.862;2022-11-15T16:26:43;10.60;99.90
54431;DHT22;40342;52.998;5.862;2022-11-15T16:29:10;10.70;99.90
54431;DHT22;40342;52.998;5.862;2022-11-15T16:31:35;10.70;99.90
54431;DHT22;40342;52.998;5.862;2022-11-15T16:34:01;10.70;99.90
54431;DHT22;40342;52.998;5.862;2022-11-15T16:36:27;10.70;99.90
54431;DHT22;40342;52.998;5.862;2022-11-15T16:38:55;10.70;99.90
54431;DHT22;40342;52.998;5.862;2022-11-15T16:41:21;10.70;99.90
54431;DHT22;40342;52.998;5.862;2022-11-15T16:43:48;10.70;99.90
54431;DHT22;40342;52.998;5.862;2022-11-15T16:46:24;10.70;99.90
54431;DHT22;40342;52.998;5.862;2022-11-15T16:48:51;10.70;99.90
54431;DHT22;40342;52.998;5.862;2022-11-15T16:51:18;10.70;99.90
54431;DHT22;40342;52.998;5.862;2022-11-15T16:53:43;10.80;99.90
54431;DHT22;40342;52.998;5.862;2022-11-15T16:56:23;10.80;99.90
54431;DHT22;40342;52.998;5.862;2022-11-15T16:58:49;10.80;99.90
54431;DHT22;40342;52.998;5.862;2022-11-15T17:01:24;10.80;99.90
54431;DHT22;40342;52.998;5.862;2022-11-15T17:03:50;10.80;99.90
54431;DHT22;40342;52.998;5.862;2022-11-15T17:06:16;10.90;99.90
54431;DHT22;40342;52.998;5.862;2022-11-15T17:08:46;10.90;99.90
54431;DHT22;40342;52.998;5.862;2022-11-15T17:11:18;10.90;99.90
54431;DHT22;40342;52.998;5.862;2022-11-15T17:13:44;10.80;99.90
54431;DHT22;40342;52.998;5.862;2022-11-15T17:16:12;10.90;99.90
54431;DHT22;40342;52.998;5.862;2022-11-15T17:18:39;10.90;99.90
54431;DHT22;40342;52.998;5.862;2022-11-15T17:21:14;10.90;99.90
54431;DHT22;40342;52.998;5.862;2022-11-15T17:23:41;10.90;99.90
54431;DHT22;40342;52.998;5.862;2022-11-15T17:26:07;10.90;99.90
54431;DHT22;40342;52.998;5.862;2022-11-15T17:28:34;10.90;99.90
54431;DHT22;40342;52.998;5.862;2022-11-15T17:31:00;10.90;99.90
54431;DHT22;40342;52.998;5.862;2022-11-15T17:33:26;11.00;99.90
54431;DHT22;40342;52.998;5.862;2022-11-15T17:35:59;11.00;99.90
54431;DHT22;40342;52.998;5.862;2022-11-15T17:38:25;11.00;99.90
54431;DHT22;40342;52.998;5.862;2022-11-15T17:41:06;11.00;99.90
54431;DHT22;40342;52.998;5.862;2022-11-15T17:43:33;11.00;99.90
54431;DHT22;40342;52.998;5.862;2022-11-15T17:46:03;11.00;99.90
54431;DHT22;40342;52.998;5.862;2022-11-15T17:48:29;11.00;99.90
54431;DHT22;40342;52.998;5.862;2022-11-15T17:51:00;11.00;99.90
54431;DHT22;40342;52.998;5.862;2022-11-15T17:53:27;11.00;99.90